createdAt,value
2018-05-03T00:02:22.321Z,97.00
2018-05-03T00:06:25.058Z,97.00
2018-05-03T00:10:27.882Z,97.10
2018-05-03T00:14:31.414Z,97.30
2018-05-03T00:18:34.168Z,97.30
2018-05-03T00:22:36.914Z,97.30
2018-05-03T00:26:39.662Z,97.40
2018-05-03T00:30:42.498Z,97.40
2018-05-03T00:34:46.242Z,97.50
2018-05-03T00:38:49.052Z,97.60
2018-05-03T00:42:51.753Z,97.60
2018-05-03T00:46:54.516Z,97.60
2018-05-03T00:50:57.254Z,97.70
2018-05-03T00:55:03.264Z,97.80
2018-05-03T00:59:06.051Z,97.80
2018-05-03T01:03:09.633Z,97.90
2018-05-03T01:07:12.333Z,97.90
2018-05-03T01:11:15.063Z,98.00
2018-05-03T01:15:18.570Z,98.00
2018-05-03T01:19:21.447Z,98.00
2018-05-03T01:23:24.177Z,98.00
2018-05-03T01:27:27.787Z,98.40
2018-05-03T01:31:30.533Z,98.40
2018-05-03T01:35:45.299Z,98.50
2018-05-03T01:39:48.107Z,98.40
2018-05-03T01:43:51.782Z,98.50
2018-05-03T01:47:54.589Z,98.40
2018-05-03T01:51:57.365Z,98.40
2018-05-03T01:56:04.737Z,98.60
2018-05-03T02:00:11.466Z,98.50
2018-05-03T02:04:14.214Z,98.50
2018-05-03T02:08:17.078Z,98.50
2018-05-03T02:12:19.786Z,98.50
2018-05-03T02:16:24.589Z,98.60
2018-05-03T02:20:27.345Z,98.70
2018-05-03T02:24:30.145Z,98.80
2018-05-03T02:28:32.897Z,99.30
2018-05-03T02:32:36.700Z,99.00
2018-05-03T02:36:40.280Z,99.00
2018-05-03T02:40:43.084Z,98.90
2018-05-03T02:44:45.833Z,99.00
2018-05-03T02:48:48.653Z,99.00
2018-05-03T02:52:51.381Z,99.10
2018-05-03T02:57:18.157Z,99.10
2018-05-03T03:01:39.814Z,99.30
2018-05-03T03:05:54.502Z,99.30
2018-05-03T03:14:58.484Z,99.30
2018-05-03T03:19:18.935Z,99.50
2018-05-03T03:23:39.442Z,99.80
2018-05-03T03:28:00.057Z,99.90
2018-05-03T03:32:15.466Z,99.90
2018-05-03T03:36:30.847Z,99.90
2018-05-03T03:40:45.499Z,99.90
2018-05-03T03:44:48.225Z,99.90
2018-05-03T03:48:54.670Z,99.90
2018-05-03T03:52:57.421Z,99.90
2018-05-03T03:57:03.514Z,99.90
2018-05-03T04:01:06.424Z,99.90
2018-05-03T04:05:09.379Z,99.90
2018-05-03T04:09:12.218Z,99.90
2018-05-03T04:13:30.151Z,99.90
2018-05-03T04:17:56.510Z,99.90
2018-05-03T04:22:13.294Z,99.90
2018-05-03T04:26:16.271Z,99.90
2018-05-03T04:30:19.074Z,99.90
2018-05-03T04:34:21.889Z,99.90
2018-05-03T04:38:25.414Z,99.90
2018-05-03T04:42:28.145Z,99.90
2018-05-03T04:46:31.634Z,99.90
2018-05-03T04:50:42.679Z,99.90
2018-05-03T04:54:45.660Z,99.90
2018-05-03T04:58:48.721Z,99.90
2018-05-03T05:02:51.459Z,99.90
2018-05-03T05:06:54.301Z,99.90
2018-05-03T05:10:57.042Z,99.90
2018-05-03T05:14:59.778Z,99.90
2018-05-03T05:19:02.518Z,99.90
2018-05-03T05:23:05.233Z,99.90
2018-05-03T05:27:08.017Z,99.90
2018-05-03T05:31:10.772Z,99.90
2018-05-03T05:35:13.504Z,99.90
2018-05-03T05:39:16.434Z,99.90
2018-05-03T05:43:19.420Z,99.90
2018-05-03T05:47:22.973Z,99.90
2018-05-03T05:51:25.716Z,99.90
2018-05-03T05:55:28.469Z,99.90
2018-05-03T05:59:31.410Z,99.90
2018-05-03T06:03:34.275Z,99.90
2018-05-03T06:07:37.023Z,99.40
2018-05-03T06:11:40.496Z,99.60
2018-05-03T06:15:43.283Z,99.60
2018-05-03T06:19:46.005Z,99.70
2018-05-03T06:23:50.677Z,99.80
2018-05-03T06:27:54.170Z,99.90
2018-05-03T06:31:56.992Z,99.60
2018-05-03T06:36:00.490Z,98.80
2018-05-03T06:40:03.317Z,98.80
2018-05-03T06:44:07.286Z,97.00
2018-05-03T06:48:10.038Z,94.90
2018-05-03T06:52:13.762Z,95.70
2018-05-03T06:56:16.499Z,95.60
2018-05-03T07:00:19.240Z,96.30
2018-05-03T07:04:22.851Z,93.40
2018-05-03T07:08:25.567Z,93.40
2018-05-03T07:12:28.318Z,92.60
2018-05-03T07:16:31.333Z,91.90
2018-05-03T07:20:34.163Z,91.50
2018-05-03T07:24:36.967Z,91.40
2018-05-03T07:28:39.659Z,90.00
2018-05-03T07:32:42.503Z,89.30
2018-05-03T07:36:45.290Z,85.10
2018-05-03T07:40:48.039Z,80.60
2018-05-03T07:44:50.884Z,84.60
2018-05-03T07:48:53.712Z,80.10
2018-05-03T07:52:57.207Z,76.70
2018-05-03T07:56:59.970Z,76.60
2018-05-03T08:01:03.825Z,74.70
2018-05-03T08:05:07.448Z,73.60
2018-05-03T08:09:11.038Z,73.10
2018-05-03T08:13:14.364Z,74.80
2018-05-03T08:17:18.253Z,77.80
2018-05-03T08:21:21.725Z,73.20
2018-05-03T08:25:26.268Z,68.00
2018-05-03T08:29:31.126Z,67.90
2018-05-03T08:33:36.782Z,65.20
2018-05-03T08:37:44.462Z,69.70
2018-05-03T08:41:47.506Z,69.60
2018-05-03T08:45:50.275Z,63.80
2018-05-03T08:49:53.027Z,64.50
2018-05-03T08:53:55.784Z,61.60
2018-05-03T08:57:59.287Z,67.80
2018-05-03T09:02:02.029Z,67.80
2018-05-03T09:06:04.753Z,62.50
2018-05-03T09:10:08.422Z,60.50
2018-05-03T09:14:11.924Z,57.70
2018-05-03T09:18:15.494Z,58.10
2018-05-03T09:22:19.072Z,55.20
2018-05-03T09:26:22.702Z,57.10
2018-05-03T09:30:25.424Z,56.70
2018-05-03T09:34:28.953Z,55.60
2018-05-03T09:38:31.696Z,55.50
2018-05-03T09:42:35.298Z,47.90
2018-05-03T09:46:38.130Z,47.70
2018-05-03T09:50:40.929Z,43.10
2018-05-03T09:54:43.637Z,50.40
2018-05-03T09:58:46.369Z,43.00
2018-05-03T10:02:49.076Z,51.50
2018-05-03T10:06:51.842Z,46.80
2018-05-03T10:10:54.544Z,47.40
2018-05-03T10:14:57.363Z,42.60
2018-05-03T10:19:00.131Z,42.20
2018-05-03T10:23:02.939Z,42.60
2018-05-03T10:27:05.731Z,40.10
2018-05-03T10:31:08.442Z,41.50
2018-05-03T10:35:11.147Z,37.70
2018-05-03T10:39:13.877Z,38.20
2018-05-03T10:43:17.461Z,36.20
2018-05-03T10:47:20.238Z,36.10
2018-05-03T10:51:22.988Z,35.30
2018-05-03T10:55:26.540Z,34.10
2018-05-03T10:59:31.072Z,38.30
2018-05-03T11:03:33.791Z,38.30
2018-05-03T11:07:36.499Z,38.70
2018-05-03T11:11:39.191Z,39.00
2018-05-03T11:15:41.910Z,37.10
2018-05-03T11:19:45.745Z,39.40
2018-05-03T11:23:49.280Z,34.40
2018-05-03T11:27:51.999Z,34.40
2018-05-03T11:31:54.768Z,37.80
2018-05-03T11:35:58.225Z,30.50
2018-05-03T11:40:01.019Z,30.90
2018-05-03T11:44:04.097Z,32.90
2018-05-03T11:48:06.812Z,33.20
2018-05-03T11:52:09.743Z,33.00
2018-05-03T11:56:12.484Z,30.00
2018-05-03T12:00:16.030Z,29.00
2018-05-03T12:04:19.224Z,29.30
2018-05-03T12:08:21.962Z,29.30
2018-05-03T12:12:24.773Z,30.20
2018-05-03T12:16:28.286Z,32.40
2018-05-03T12:20:31.776Z,29.00
2018-05-03T12:24:34.516Z,29.20
2018-05-03T12:28:37.315Z,30.00
2018-05-03T12:32:40.849Z,28.50
2018-05-03T12:36:43.637Z,27.90
2018-05-03T12:40:46.537Z,27.20
2018-05-03T12:44:49.314Z,27.10
2018-05-03T12:48:52.832Z,28.40
2018-05-03T12:52:56.445Z,26.60
2018-05-03T12:56:59.322Z,26.80
2018-05-03T13:01:02.044Z,25.50
2018-05-03T13:05:05.512Z,30.30
2018-05-03T13:09:08.254Z,30.40
2018-05-03T13:13:11.870Z,27.10
2018-05-03T13:17:15.471Z,29.70
2018-05-03T13:21:18.280Z,29.60
2018-05-03T13:25:22.954Z,30.00
2018-05-03T13:29:25.672Z,29.80
2018-05-03T13:33:29.371Z,27.80
2018-05-03T13:37:32.189Z,27.70
2018-05-03T13:41:35.056Z,29.10
2018-05-03T13:45:37.848Z,28.90
2018-05-03T13:49:41.372Z,41.50
2018-05-03T13:53:44.111Z,41.20
2018-05-03T13:57:47.700Z,46.90
2018-05-03T14:01:50.517Z,46.80
2018-05-03T14:05:53.223Z,48.80
2018-05-03T14:09:55.967Z,49.00
2018-05-03T14:13:59.536Z,44.50
2018-05-03T14:18:02.308Z,44.60
2018-05-03T14:22:05.969Z,39.30
2018-05-03T14:26:08.852Z,34.60
2018-05-03T14:30:11.824Z,32.40
2018-05-03T14:34:15.942Z,32.10
2018-05-03T14:38:19.581Z,32.20
2018-05-03T14:42:22.350Z,31.30
2018-05-03T14:46:25.163Z,30.80
2018-05-03T14:50:27.956Z,31.20
2018-05-03T14:54:31.299Z,34.40
2018-05-03T14:58:34.096Z,34.70
2018-05-03T15:02:38.968Z,32.70
2018-05-03T15:06:42.874Z,34.40
2018-05-03T15:10:51.520Z,36.30
2018-05-03T15:14:54.474Z,39.00
2018-05-03T15:18:57.230Z,43.00
2018-05-03T15:23:01.285Z,48.00
2018-05-03T15:27:04.031Z,48.00
2018-05-03T15:31:07.548Z,50.10
2018-05-03T15:35:14.144Z,50.10
2018-05-03T15:39:18.184Z,52.00
2018-05-03T15:43:21.937Z,53.00
2018-05-03T15:47:25.019Z,52.80
2018-05-03T15:51:28.822Z,53.20
2018-05-03T15:55:31.879Z,53.20
2018-05-03T15:59:34.901Z,52.10
2018-05-03T16:03:38.954Z,54.30
2018-05-03T16:07:43.625Z,55.30
2018-05-03T16:11:47.006Z,55.30
2018-05-03T16:15:49.857Z,56.80
2018-05-03T16:19:52.918Z,57.60
2018-05-03T16:23:55.746Z,59.00
2018-05-03T16:28:01.028Z,59.20
2018-05-03T16:32:03.826Z,61.00
2018-05-03T16:36:07.542Z,60.00
2018-05-03T16:40:10.270Z,59.60
2018-05-03T16:44:13.877Z,61.10
2018-05-03T16:48:16.742Z,60.60
2018-05-03T16:52:19.644Z,61.80
2018-05-03T16:56:22.374Z,62.30
2018-05-03T17:00:25.344Z,62.90
2018-05-03T17:04:28.088Z,62.60
2018-05-03T17:08:31.744Z,66.70
2018-05-03T17:12:34.490Z,66.60
2018-05-03T17:16:37.598Z,67.00
2018-05-03T17:20:40.432Z,69.70
2018-05-03T17:24:43.973Z,71.00
2018-05-03T17:28:46.773Z,71.00
2018-05-03T17:32:49.918Z,69.10
2018-05-03T17:36:52.783Z,71.90
2018-05-03T17:40:56.403Z,75.70
2018-05-03T17:44:59.159Z,75.40
2018-05-03T17:49:01.946Z,75.70
2018-05-03T17:53:05.675Z,78.20
2018-05-03T17:57:09.205Z,80.00
2018-05-03T18:01:12.741Z,79.80
2018-05-03T18:05:15.581Z,80.20
2018-05-03T18:09:18.486Z,81.30
2018-05-03T18:13:24.199Z,82.30
2018-05-03T18:17:31.122Z,83.20
2018-05-03T18:21:37.262Z,83.20
2018-05-03T18:25:43.523Z,84.40
2018-05-03T18:29:48.502Z,86.00
2018-05-03T18:33:52.431Z,86.80
2018-05-03T18:37:57.160Z,86.80
2018-05-03T18:42:03.019Z,87.20
2018-05-03T18:46:09.870Z,88.80
2018-05-03T18:50:15.158Z,90.20
2018-05-03T18:54:21.604Z,90.30
2018-05-03T18:58:25.397Z,90.80
2018-05-03T19:02:28.357Z,90.80
2018-05-03T19:06:31.039Z,91.00
2018-05-03T19:10:33.789Z,91.00
2018-05-03T19:14:36.693Z,91.70
2018-05-03T19:18:39.452Z,91.70
2018-05-03T19:22:43.073Z,92.20
2018-05-03T19:26:45.838Z,91.90
2018-05-03T19:30:49.310Z,92.30
2018-05-03T19:34:52.871Z,92.00
2018-05-03T19:38:55.672Z,92.00
2018-05-03T19:42:58.454Z,92.30
2018-05-03T19:47:01.995Z,92.20
2018-05-03T19:51:04.737Z,92.10
2018-05-03T19:55:07.470Z,92.00
2018-05-03T19:59:10.985Z,92.00
2018-05-03T20:03:14.523Z,92.10
2018-05-03T20:07:17.244Z,92.10
2018-05-03T20:11:20.093Z,92.00
2018-05-03T20:15:24.031Z,91.60
2018-05-03T20:19:26.772Z,91.60
2018-05-03T20:23:29.909Z,91.90
2018-05-03T20:27:33.448Z,92.10
2018-05-03T20:31:37.965Z,92.10
2018-05-03T20:35:40.877Z,91.70
2018-05-03T20:39:43.746Z,91.60
2018-05-03T20:43:46.500Z,92.00
2018-05-03T20:47:49.388Z,91.70
2018-05-03T20:51:52.194Z,91.70
2018-05-03T20:55:54.966Z,91.90
2018-05-03T20:59:58.491Z,91.50
2018-05-03T21:04:01.339Z,91.50
2018-05-03T21:08:04.154Z,91.70
2018-05-03T21:12:06.913Z,91.20
2018-05-03T21:16:09.787Z,91.00
2018-05-03T21:20:12.531Z,91.30
2018-05-03T21:24:16.457Z,90.80
2018-05-03T21:28:20.137Z,91.00
2018-05-03T21:32:22.913Z,91.00
2018-05-03T21:36:26.591Z,90.70
2018-05-03T21:40:29.370Z,90.70
2018-05-03T21:44:32.290Z,90.50
2018-05-03T21:48:35.142Z,90.90
2018-05-03T21:52:37.961Z,90.60
2018-05-03T21:56:40.888Z,90.60
2018-05-03T22:00:43.611Z,90.30
2018-05-03T22:04:46.423Z,90.20
2018-05-03T22:08:50.112Z,90.50
2018-05-03T22:12:52.832Z,90.40
2018-05-03T22:16:55.578Z,90.50
2018-05-03T22:20:58.607Z,90.30
2018-05-03T22:25:01.350Z,90.80
2018-05-03T22:29:04.129Z,91.00
2018-05-03T22:33:07.438Z,91.10
2018-05-03T22:37:10.943Z,91.00
2018-05-03T22:41:13.713Z,91.00
2018-05-03T22:45:16.577Z,91.30
2018-05-03T22:49:19.367Z,91.50
2018-05-03T22:53:22.145Z,91.30
2018-05-03T22:57:25.665Z,91.60
2018-05-03T23:01:29.381Z,91.80
2018-05-03T23:05:33.198Z,91.80
2018-05-03T23:09:36.954Z,91.70
2018-05-03T23:13:39.887Z,91.60
2018-05-03T23:17:42.858Z,91.70
2018-05-03T23:21:45.598Z,91.30
2018-05-03T23:25:48.320Z,91.60
2018-05-03T23:29:51.859Z,91.80
2018-05-03T23:33:54.760Z,91.80
2018-05-03T23:37:57.494Z,91.80
2018-05-03T23:42:00.292Z,91.90
2018-05-03T23:46:03.049Z,91.50
2018-05-03T23:50:05.899Z,91.70
2018-05-03T23:54:08.701Z,92.00
2018-05-03T23:58:11.652Z,92.00
